| time (UTC) | temp C | wind direction | speed KPH | gust KPH | rain 1hr cm | rain 24hr cm | rain mn cm | humidity % | barometer mb |
| 20260505121515 | 8 | 63 | 0.0 | 0.0 | 0.00 | 0.00 | 0.00 | 85 | 1009.8 |
| 20260505120005 | 8 | 63 | 0.0 | 0.0 | 0.00 | 0.00 | 0.00 | 85 | 1009.7 |
| 20260505114502 | 9 | 63 | 0.0 | 0.0 | 0.00 | 0.00 | 0.00 | 85 | 1009.6 |
| 20260505113104 | 10 | 63 | 0.0 | 0.0 | 0.00 | 0.00 | 0.00 | 85 | 1009.6 |
| 20260505111557 | 10 | 63 | 0.0 | 0.0 | 0.00 | 0.00 | 0.00 | 85 | 1009.5 |
| 20260505101549 | 10 | 63 | 0.0 | 0.0 | 0.00 | 0.00 | 0.00 | 84 | 1008.8 |
| 20260505100118 | 11 | 63 | 0.0 | 0.0 | 0.00 | 0.00 | 0.00 | 84 | 1008.6 |
| 20260505094545 | 11 | 63 | 0.0 | 0.0 | 0.00 | 0.00 | 0.00 | 84 | 1008.5 |
| 20260505093042 | 11 | 63 | 0.0 | 0.0 | 0.00 | 0.00 | 0.00 | 83 | 1008.2 |
| 20260505091552 | 11 | 63 | 0.0 | 0.0 | 0.00 | 0.00 | 0.00 | 83 | 1008.2 |
| 20260505090053 | 12 | 63 | 0.0 | 0.0 | 0.00 | 0.00 | 0.00 | 82 | 1008.1 |
| 20260505084535 | 12 | 63 | 0.0 | 0.0 | 0.00 | 0.00 | 0.00 | 82 | 1008.1 |
| 20260505083045 | 12 | 63 | 0.0 | 0.0 | 0.00 | 0.00 | 0.00 | 81 | 1008.0 |
| 20260505081534 | 12 | 63 | 0.0 | 0.0 | 0.00 | 0.00 | 0.00 | 80 | 1008.0 |
| 20260505080044 | 13 | 63 | 0.0 | 0.0 | 0.00 | 0.00 | 0.00 | 80 | 1007.8 |
| 20260505074526 | 13 | 63 | 0.0 | 0.0 | 0.00 | 0.00 | 0.00 | 78 | 1007.7 |
| 20260505073025 | 13 | 63 | 0.0 | 0.0 | 0.00 | 0.00 | 0.00 | 77 | 1007.7 |
| 20260505071527 | 14 | 63 | 0.0 | 0.0 | 0.00 | 0.00 | 0.00 | 76 | 1007.5 |
| 20260505070016 | 14 | 63 | 0.0 | 0.0 | 0.00 | 0.00 | 0.00 | 76 | 1007.5 |
| 20260505064515 | 14 | 63 | 0.0 | 0.0 | 0.00 | 0.00 | 0.00 | 74 | 1007.2 |
| 20260505063026 | 15 | 63 | 0.0 | 0.0 | 0.00 | 0.00 | 0.00 | 73 | 1007.0 |
| 20260505061517 | 15 | 63 | 0.0 | 0.0 | 0.00 | 0.00 | 0.00 | 71 | 1006.8 |
| 20260505060014 | 16 | 63 | 0.0 | 0.0 | 0.00 | 0.00 | 0.00 | 69 | 1006.6 |
| 20260505054515 | 16 | 63 | 0.0 | 0.0 | 0.00 | 0.00 | 0.00 | 68 | 1006.5 |
| 20260505053013 | 17 | 63 | 0.0 | 0.0 | 0.00 | 0.00 | 0.00 | 66 | 1006.4 |
| 20260505051518 | 17 | 63 | 0.0 | 0.0 | 0.00 | 0.00 | 0.00 | 63 | 1006.2 |
| 20260505041511 | 20 | 62 | 1.6 | 0.0 | 0.00 | 0.00 | 0.00 | 54 | 1005.7 |
| 20260505040010 | 21 | 62 | 1.6 | 0.0 | 0.00 | 0.00 | 0.00 | 53 | 1005.5 |
| 20260505034510 | 21 | 62 | 0.0 | 0.0 | 0.00 | 0.00 | 0.00 | 52 | 1005.1 |
| 20260505033009 | 22 | 62 | 1.6 | 0.0 | 0.00 | 0.00 | 0.00 | 49 | 1004.7 |
| 20260505031522 | 22 | 62 | 3.2 | 0.0 | 0.00 | 0.00 | 0.00 | 45 | 1004.2 |
| 20260505030008 | 23 | 62 | 3.2 | 0.0 | 0.00 | 0.00 | 0.00 | 43 | 1003.8 |
| 20260505024507 | 23 | 54 | 1.6 | 0.0 | 0.00 | 0.00 | 0.00 | 41 | 1003.5 |
| 20260505023007 | 23 | 54 | 3.2 | 0.0 | 0.00 | 0.00 | 0.00 | 40 | 1003.1 |
| 20260505021507 | 25 | 52 | 1.6 | 0.0 | 0.00 | 0.00 | 0.00 | 36 | 1003.0 |
| 20260505020006 | 26 | 146 | 4.8 | 0.0 | 0.00 | 0.00 | 0.00 | 33 | 1002.9 |
| 20260505014510 | 27 | 200 | 3.2 | 0.0 | 0.00 | 0.00 | 0.00 | 28 | 1002.0 |
| 20260505013006 | 27 | 200 | 3.2 | 0.0 | 0.00 | 0.00 | 0.00 | 30 | 1002.0 |
| 20260505011506 | 27 | 200 | 6.4 | 0.0 | 0.00 | 0.00 | 0.00 | 29 | 1002.0 |
| 20260505010011 | 27 | 200 | 6.4 | 0.0 | 0.00 | 0.00 | 0.00 | 33 | 1002.1 |
| 20260505004502 | 28 | 200 | 6.4 | 0.0 | 0.00 | 0.00 | 0.00 | 29 | 1002.1 |
| 20260505003002 | 28 | 188 | 4.8 | 0.0 | 0.00 | 0.00 | 0.00 | 30 | 1002.3 |
| 20260505001502 | 28 | 186 | 8.0 | 0.0 | 0.00 | 0.00 | 0.00 | 32 | 1002.3 |
| 20260505000105 | 28 | 182 | 6.4 | 0.0 | 0.00 | 0.00 | 0.00 | 32 | 1002.5 |
| 20260504234559 | 28 | 209 | 6.4 | 0.0 | 0.00 | 0.00 | 0.00 | 32 | 1002.6 |
| 20260504233105 | 28 | 209 | 8.0 | 0.0 | 0.00 | 0.00 | 0.00 | 31 | 1002.7 |
| 20260504231557 | 28 | 208 | 4.8 | 0.0 | 0.00 | 0.00 | 0.00 | 32 | 1002.8 |
| 20260504230112 | 28 | 208 | 4.8 | 0.0 | 0.00 | 0.00 | 0.00 | 31 | 1003.0 |
| 20260504224607 | 28 | 207 | 4.8 | 0.0 | 0.00 | 0.00 | 0.00 | 32 | 1003.2 |
| 20260504223051 | 27 | 205 | 6.4 | 0.0 | 0.00 | 0.00 | 0.00 | 32 | 1003.3 |
| 20260504221549 | 27 | 202 | 4.8 | 0.0 | 0.00 | 0.00 | 0.00 | 32 | 1003.6 |
| 20260504220055 | 27 | 202 | 6.4 | 0.0 | 0.00 | 0.00 | 0.00 | 33 | 1003.6 |
| 20260504214547 | 28 | 202 | 3.2 | 0.0 | 0.00 | 0.00 | 0.00 | 33 | 1003.9 |
| 20260504213044 | 27 | 202 | 3.2 | 0.0 | 0.00 | 0.00 | 0.00 | 32 | 1004.0 |
| 20260504211542 | 27 | 202 | 3.2 | 0.0 | 0.00 | 0.00 | 0.00 | 31 | 1004.2 |
| 20260504210053 | 27 | 202 | 3.2 | 0.0 | 0.00 | 0.00 | 0.00 | 30 | 1004.3 |
| 20260504204545 | 27 | 202 | 4.8 | 0.0 | 0.00 | 0.00 | 0.00 | 28 | 1004.4 |
| 20260504203035 | 26 | 202 | 4.8 | 0.0 | 0.00 | 0.00 | 0.00 | 31 | 1004.5 |
| 20260504201532 | 26 | 202 | 4.8 | 0.0 | 0.00 | 0.00 | 0.00 | 32 | 1004.7 |
| 20260504200040 | 26 | 200 | 6.4 | 0.0 | 0.00 | 0.00 | 0.00 | 33 | 1004.8 |
| 20260504194528 | 26 | 200 | 3.2 | 0.0 | 0.00 | 0.00 | 0.00 | 33 | 1004.9 |
| 20260504193024 | 25 | 200 | 4.8 | 0.0 | 0.00 | 0.00 | 0.00 | 33 | 1005.1 |
| 20260504191523 | 25 | 200 | 3.2 | 0.0 | 0.00 | 0.00 | 0.00 | 33 | 1005.2 |
| 20260504190020 | 23 | 200 | 3.2 | 0.0 | 0.00 | 0.00 | 0.00 | 37 | 1005.5 |
| 20260504184524 | 22 | 200 | 3.2 | 0.0 | 0.00 | 0.00 | 0.00 | 40 | 1005.8 |
| 20260504183017 | 22 | 200 | 3.2 | 0.0 | 0.00 | 0.00 | 0.00 | 40 | 1006.0 |
| 20260504181508 | 21 | 200 | 1.6 | 0.0 | 0.00 | 0.00 | 0.00 | 41 | 1006.2 |
| 20260504180005 | 21 | 200 | 1.6 | 0.0 | 0.00 | 0.00 | 0.00 | 42 | 1006.4 |
| 20260504174502 | 20 | 200 | 1.6 | 0.0 | 0.00 | 0.00 | 0.00 | 43 | 1006.7 |
| 20260504173059 | 20 | 200 | 1.6 | 0.0 | 0.00 | 0.00 | 0.00 | 45 | 1006.8 |
| 20260504171556 | 20 | 200 | 0.0 | 0.0 | 0.00 | 0.00 | 0.00 | 44 | 1007.0 |